Airfield :
LOGIN :

Register | Disclaimer

   EN    FR    IT 

 










Legend :    VFR   Marginal VFR   IFR   Intensive IFR   Very Intensive IFR
Visi :
Ceiling :
>= 8 km
>= 3000ft
5 to 8 km
1000 to 3000 ft
1500m to 5 km
500 to 1000 ft
800 to 1500m
200 to 500 ft
< 800m
< 200 ft
Symbols :   Thunderstorms  Fog  Heavy snow  Heavy precipitations  Wind > 20 kt
SIGMETs :     Misc.  Thunderstorms  Icing  Turbulence  Mountain Waves  Volcanic Ashes






- Airport Elevation : 218 ft


EGYD - RAF Cranwell

CURRENT METAR :
  • 280920Z 17013KT 9999 -RA FEW012 BKN024 OVC070 03/01 Q1008 BECMG BKN010 RMK WHT BECMG GRN

EXPIRED METARs :
  • 280850Z 17013KT 9999 -RA SCT022 OVC080 02/00 Q1008 BECMG BKN010 RMK WHT BECMG GRN
  • 280821Z 16012KT 9999 FEW030 OVC080 02/M00 Q1009 BECMG BKN020 RMK BLU BECMG WHT
  • 280750Z 16008KT 9999 FEW020 OVC080 02/M00 Q1009 BECMG BKN020 RMK BLU BECMG WHT
  • 280721Z 17009KT CAVOK 02/M00 Q1010 BECMG BKN020 RMK BLU BECMG WHT
  • 280650Z 17010KT CAVOK 02/M01 Q1010 BECMG BKN020 RMK BLU BECMG WHT

TAF TAF EGYD
Valid from the 28 at 09:00 until the 28 at 18:00 UTC


280743Z 2809/2818 16015KT 9999 FEW015 BKN025
BECMG 2809/2811 15018G28KT BKN010
TEMPO 2810/2818 6000 RA BKN006
PROB30
TEMPO 2813/2817 3000 RADZ BKN004
BECMG 2816/2818 19018G28KT



MET'MAP, your aeronautical weather chart ! - Copyright ORBIFLY December 2007 - Disclaimer

ORBIFLY MET'MAP TEAM :

Programming & Development : Alexandra Zaïnal
Concept & original design : Baudouin d'Aumeries
Assistance for programming : Marc-Olivier Méhu
Technical & hardware support : Manuel Goepfert

Contact : metmap@orbifly.com




SOURCES & CREDITS :

   NOAA